sensor_id;sensor_type;location;lat;lon;timestamp;pressure;altitude;pressure_sealevel;temperature;humidity
7376;BME280;3728;42.266;24.944;2024-02-14T00:00:10;99142.97;;;9.79;89.40
7376;BME280;3728;42.266;24.944;2024-02-14T00:02:44;99146.53;;;9.91;89.28
7376;BME280;3728;42.266;24.944;2024-02-14T00:05:12;99145.06;;;9.68;89.25
7376;BME280;3728;42.266;24.944;2024-02-14T00:07:39;99150.34;;;9.77;89.74
7376;BME280;3728;42.266;24.944;2024-02-14T00:10:06;99153.56;;;9.82;89.08
7376;BME280;3728;42.266;24.944;2024-02-14T00:12:35;99156.00;;;9.70;89.14
7376;BME280;3728;42.266;24.944;2024-02-14T00:15:06;99166.69;;;9.91;88.38
7376;BME280;3728;42.266;24.944;2024-02-14T00:17:34;99161.59;;;9.94;87.96
7376;BME280;3728;42.266;24.944;2024-02-14T00:20:03;99159.91;;;9.90;87.47
7376;BME280;3728;42.266;24.944;2024-02-14T00:22:31;99165.00;;;9.86;88.69
7376;BME280;3728;42.266;24.944;2024-02-14T00:24:58;99171.00;;;9.87;87.79
7376;BME280;3728;42.266;24.944;2024-02-14T00:27:25;99165.34;;;9.62;90.16
7376;BME280;3728;42.266;24.944;2024-02-14T00:29:53;99165.38;;;9.71;89.10
7376;BME280;3728;42.266;24.944;2024-02-14T00:32:21;99172.53;;;9.88;89.15
7376;BME280;3728;42.266;24.944;2024-02-14T00:34:49;99179.06;;;10.07;88.65
7376;BME280;3728;42.266;24.944;2024-02-14T00:37:19;99169.75;;;9.84;90.06
7376;BME280;3728;42.266;24.944;2024-02-14T00:39:46;99175.91;;;9.80;89.63
7376;BME280;3728;42.266;24.944;2024-02-14T00:42:16;99170.13;;;9.60;90.97
7376;BME280;3728;42.266;24.944;2024-02-14T00:44:43;99172.56;;;9.57;91.80
7376;BME280;3728;42.266;24.944;2024-02-14T00:47:10;99176.94;;;9.79;91.30
7376;BME280;3728;42.266;24.944;2024-02-14T00:49:37;99167.06;;;9.67;91.53
7376;BME280;3728;42.266;24.944;2024-02-14T00:52:06;99185.16;;;9.94;89.90
7376;BME280;3728;42.266;24.944;2024-02-14T00:54:33;99172.38;;;9.84;89.47
7376;BME280;3728;42.266;24.944;2024-02-14T00:57:00;99175.72;;;9.76;89.93
7376;BME280;3728;42.266;24.944;2024-02-14T00:59:27;99173.16;;;9.93;89.98
7376;BME280;3728;42.266;24.944;2024-02-14T01:01:54;99181.47;;;9.87;89.94
7376;BME280;3728;42.266;24.944;2024-02-14T01:04:21;99180.50;;;9.83;90.60
7376;BME280;3728;42.266;24.944;2024-02-14T01:06:48;99183.75;;;9.80;90.87
7376;BME280;3728;42.266;24.944;2024-02-14T01:09:16;99191.91;;;9.87;91.09
7376;BME280;3728;42.266;24.944;2024-02-14T01:11:44;99190.25;;;9.99;89.31
7376;BME280;3728;42.266;24.944;2024-02-14T01:14:11;99180.16;;;9.76;90.98
7376;BME280;3728;42.266;24.944;2024-02-14T01:16:44;99172.41;;;9.53;92.78
7376;BME280;3728;42.266;24.944;2024-02-14T01:19:12;99190.28;;;9.69;91.96
7376;BME280;3728;42.266;24.944;2024-02-14T01:21:39;99189.09;;;9.75;91.91
7376;BME280;3728;42.266;24.944;2024-02-14T01:24:06;99191.06;;;9.69;91.82
7376;BME280;3728;42.266;24.944;2024-02-14T01:26:35;99185.81;;;9.60;92.53
7376;BME280;3728;42.266;24.944;2024-02-14T01:29:02;99187.19;;;9.58;92.58
7376;BME280;3728;42.266;24.944;2024-02-14T01:31:29;99186.50;;;9.44;92.80
7376;BME280;3728;42.266;24.944;2024-02-14T01:33:56;99198.44;;;9.67;91.50
7376;BME280;3728;42.266;24.944;2024-02-14T01:36:24;99197.41;;;9.46;92.68
7376;BME280;3728;42.266;24.944;2024-02-14T01:38:51;99197.16;;;9.56;92.26
7376;BME280;3728;42.266;24.944;2024-02-14T01:41:18;99198.25;;;9.63;91.21
7376;BME280;3728;42.266;24.944;2024-02-14T01:43:45;99205.53;;;9.75;90.27
7376;BME280;3728;42.266;24.944;2024-02-14T01:46:13;99200.94;;;9.72;90.93
7376;BME280;3728;42.266;24.944;2024-02-14T01:48:41;99205.41;;;9.80;90.81
7376;BME280;3728;42.266;24.944;2024-02-14T01:51:11;99210.44;;;9.68;90.85
7376;BME280;3728;42.266;24.944;2024-02-14T01:53:39;99204.84;;;9.61;89.63
7376;BME280;3728;42.266;24.944;2024-02-14T01:56:07;99214.03;;;9.81;88.89
7376;BME280;3728;42.266;24.944;2024-02-14T01:58:34;99221.63;;;9.91;88.37
7376;BME280;3728;42.266;24.944;2024-02-14T02:01:02;99208.13;;;9.67;88.75
7376;BME280;3728;42.266;24.944;2024-02-14T02:03:30;99213.69;;;9.74;88.54
7376;BME280;3728;42.266;24.944;2024-02-14T02:06:05;99213.78;;;9.91;88.39
7376;BME280;3728;42.266;24.944;2024-02-14T02:08:33;99210.75;;;9.75;89.15
7376;BME280;3728;42.266;24.944;2024-02-14T02:11:01;99215.94;;;9.58;90.78
7376;BME280;3728;42.266;24.944;2024-02-14T02:13:28;99215.00;;;9.93;89.36
7376;BME280;3728;42.266;24.944;2024-02-14T02:15:55;99206.97;;;9.90;88.94
7376;BME280;3728;42.266;24.944;2024-02-14T02:18:23;99224.19;;;9.82;89.85
7376;BME280;3728;42.266;24.944;2024-02-14T02:20:52;99211.63;;;9.62;91.33
7376;BME280;3728;42.266;24.944;2024-02-14T02:23:19;99221.16;;;9.58;91.60
7376;BME280;3728;42.266;24.944;2024-02-14T02:25:48;99221.59;;;9.51;92.80
7376;BME280;3728;42.266;24.944;2024-02-14T02:28:17;99221.53;;;9.43;94.67
7376;BME280;3728;42.266;24.944;2024-02-14T02:30:44;99211.81;;;9.35;95.32
7376;BME280;3728;42.266;24.944;2024-02-14T02:33:13;99209.53;;;9.42;94.33
7376;BME280;3728;42.266;24.944;2024-02-14T02:35:41;99221.28;;;9.31;95.56
7376;BME280;3728;42.266;24.944;2024-02-14T02:38:12;99229.13;;;9.31;94.60
7376;BME280;3728;42.266;24.944;2024-02-14T02:40:39;99229.78;;;9.58;93.51
7376;BME280;3728;42.266;24.944;2024-02-14T02:43:05;99234.94;;;9.50;94.36
7376;BME280;3728;42.266;24.944;2024-02-14T02:45:32;99233.81;;;9.42;93.93
7376;BME280;3728;42.266;24.944;2024-02-14T02:47:59;99236.03;;;9.27;94.75
7376;BME280;3728;42.266;24.944;2024-02-14T02:50:28;99240.25;;;9.36;95.12
7376;BME280;3728;42.266;24.944;2024-02-14T02:52:56;99243.72;;;9.54;94.29
7376;BME280;3728;42.266;24.944;2024-02-14T02:55:23;99251.00;;;9.35;94.88
7376;BME280;3728;42.266;24.944;2024-02-14T02:57:50;99248.78;;;9.28;95.31
7376;BME280;3728;42.266;24.944;2024-02-14T03:00:19;99251.88;;;9.30;94.87
7376;BME280;3728;42.266;24.944;2024-02-14T03:02:48;99253.34;;;9.45;94.66
7376;BME280;3728;42.266;24.944;2024-02-14T03:05:15;99247.41;;;9.53;94.02
7376;BME280;3728;42.266;24.944;2024-02-14T03:07:46;99245.50;;;9.67;93.96
7376;BME280;3728;42.266;24.944;2024-02-14T03:10:15;99254.78;;;9.29;94.94
7376;BME280;3728;42.266;24.944;2024-02-14T03:12:48;99255.22;;;9.22;96.29
7376;BME280;3728;42.266;24.944;2024-02-14T03:15:16;99247.63;;;9.34;94.03
7376;BME280;3728;42.266;24.944;2024-02-14T03:17:44;99263.72;;;9.28;95.09
7376;BME280;3728;42.266;24.944;2024-02-14T03:20:14;99265.38;;;9.46;94.12
7376;BME280;3728;42.266;24.944;2024-02-14T03:22:44;99266.34;;;9.14;95.26
7376;BME280;3728;42.266;24.944;2024-02-14T03:25:19;99267.63;;;9.17;97.59
7376;BME280;3728;42.266;24.944;2024-02-14T03:27:47;99276.91;;;9.23;95.94
7376;BME280;3728;42.266;24.944;2024-02-14T03:30:19;99276.25;;;9.39;94.55
7376;BME280;3728;42.266;24.944;2024-02-14T03:32:46;99279.81;;;9.43;93.88
7376;BME280;3728;42.266;24.944;2024-02-14T03:35:14;99274.66;;;9.30;95.73
7376;BME280;3728;42.266;24.944;2024-02-14T03:37:42;99276.78;;;9.28;94.77
7376;BME280;3728;42.266;24.944;2024-02-14T03:40:10;99290.19;;;9.57;94.04
7376;BME280;3728;42.266;24.944;2024-02-14T03:42:38;99284.25;;;9.43;93.35
7376;BME280;3728;42.266;24.944;2024-02-14T03:45:07;99286.44;;;9.49;92.29
7376;BME280;3728;42.266;24.944;2024-02-14T03:47:35;99289.44;;;9.34;92.25
7376;BME280;3728;42.266;24.944;2024-02-14T03:50:02;99295.78;;;9.42;92.80
7376;BME280;3728;42.266;24.944;2024-02-14T03:52:31;99295.47;;;9.21;94.11
7376;BME280;3728;42.266;24.944;2024-02-14T03:55:02;99295.19;;;9.09;96.30
7376;BME280;3728;42.266;24.944;2024-02-14T03:57:29;99300.00;;;9.29;96.21
7376;BME280;3728;42.266;24.944;2024-02-14T03:59:59;99296.16;;;9.49;93.69
7376;BME280;3728;42.266;24.944;2024-02-14T04:02:37;99298.50;;;9.15;95.16
7376;BME280;3728;42.266;24.944;2024-02-14T04:05:07;99305.03;;;9.26;94.83
7376;BME280;3728;42.266;24.944;2024-02-14T04:07:34;99305.75;;;9.18;96.96
7376;BME280;3728;42.266;24.944;2024-02-14T04:10:03;99309.34;;;9.30;96.80
7376;BME280;3728;42.266;24.944;2024-02-14T04:12:30;99317.63;;;9.24;95.22
7376;BME280;3728;42.266;24.944;2024-02-14T04:14:57;99333.06;;;8.98;97.22
7376;BME280;3728;42.266;24.944;2024-02-14T04:17:24;99316.19;;;9.18;97.19
7376;BME280;3728;42.266;24.944;2024-02-14T04:19:51;99326.22;;;9.24;94.98
7376;BME280;3728;42.266;24.944;2024-02-14T04:22:18;99331.88;;;9.40;94.45
7376;BME280;3728;42.266;24.944;2024-02-14T04:24:47;99330.56;;;9.29;94.82
7376;BME280;3728;42.266;24.944;2024-02-14T04:27:14;99327.78;;;9.25;94.98
7376;BME280;3728;42.266;24.944;2024-02-14T04:29:41;99332.59;;;9.54;94.18
7376;BME280;3728;42.266;24.944;2024-02-14T04:32:14;99336.00;;;9.54;92.13
7376;BME280;3728;42.266;24.944;2024-02-14T04:34:42;99338.06;;;9.66;91.57
7376;BME280;3728;42.266;24.944;2024-02-14T04:37:10;99330.13;;;9.49;90.98
7376;BME280;3728;42.266;24.944;2024-02-14T04:39:40;99336.66;;;9.60;90.54
7376;BME280;3728;42.266;24.944;2024-02-14T04:42:07;99344.91;;;9.76;91.15
7376;BME280;3728;42.266;24.944;2024-02-14T04:44:35;99337.25;;;9.35;92.28
7376;BME280;3728;42.266;24.944;2024-02-14T04:47:02;99345.53;;;10.03;89.43
7376;BME280;3728;42.266;24.944;2024-02-14T04:49:29;99340.69;;;9.44;92.04
7376;BME280;3728;42.266;24.944;2024-02-14T04:51:57;99344.16;;;9.53;92.51
7376;BME280;3728;42.266;24.944;2024-02-14T04:54:24;99339.69;;;9.53;92.57
7376;BME280;3728;42.266;24.944;2024-02-14T04:56:53;99344.72;;;9.50;92.35
7376;BME280;3728;42.266;24.944;2024-02-14T04:59:25;99345.81;;;9.49;92.01
7376;BME280;3728;42.266;24.944;2024-02-14T05:01:52;99346.31;;;9.37;92.41
7376;BME280;3728;42.266;24.944;2024-02-14T05:04:20;99353.03;;;9.52;90.48
7376;BME280;3728;42.266;24.944;2024-02-14T05:06:48;99343.69;;;9.37;91.12
7376;BME280;3728;42.266;24.944;2024-02-14T05:09:17;99356.81;;;9.24;91.35
7376;BME280;3728;42.266;24.944;2024-02-14T05:11:44;99352.00;;;9.17;92.09
7376;BME280;3728;42.266;24.944;2024-02-14T05:14:11;99360.88;;;9.30;91.54
7376;BME280;3728;42.266;24.944;2024-02-14T05:16:41;99369.31;;;9.13;92.55
7376;BME280;3728;42.266;24.944;2024-02-14T05:19:08;99368.09;;;9.33;91.18
7376;BME280;3728;42.266;24.944;2024-02-14T05:21:36;99370.13;;;9.72;89.47
7376;BME280;3728;42.266;24.944;2024-02-14T05:24:05;99370.66;;;9.60;89.77
7376;BME280;3728;42.266;24.944;2024-02-14T05:26:34;99373.91;;;9.43;90.69
7376;BME280;3728;42.266;24.944;2024-02-14T05:29:02;99377.91;;;9.63;89.99
7376;BME280;3728;42.266;24.944;2024-02-14T05:31:45;99381.00;;;9.29;90.83
7376;BME280;3728;42.266;24.944;2024-02-14T05:34:13;99387.50;;;9.18;92.44
7376;BME280;3728;42.266;24.944;2024-02-14T05:36:40;99385.06;;;9.22;92.77
7376;BME280;3728;42.266;24.944;2024-02-14T05:39:09;99385.91;;;9.31;91.35
7376;BME280;3728;42.266;24.944;2024-02-14T05:41:36;99396.00;;;9.59;88.91
7376;BME280;3728;42.266;24.944;2024-02-14T05:44:04;99396.31;;;9.58;89.64
7376;BME280;3728;42.266;24.944;2024-02-14T05:46:30;99396.06;;;9.68;87.98
7376;BME280;3728;42.266;24.944;2024-02-14T05:48:59;99401.38;;;9.41;88.98
7376;BME280;3728;42.266;24.944;2024-02-14T05:51:26;99406.41;;;9.37;90.05
7376;BME280;3728;42.266;24.944;2024-02-14T05:53:53;99399.97;;;9.21;90.75
7376;BME280;3728;42.266;24.944;2024-02-14T05:56:20;99400.66;;;9.62;89.02
7376;BME280;3728;42.266;24.944;2024-02-14T05:58:47;99402.06;;;9.46;88.24
7376;BME280;3728;42.266;24.944;2024-02-14T06:01:15;99415.75;;;9.16;91.29
7376;BME280;3728;42.266;24.944;2024-02-14T06:03:42;99421.16;;;9.33;90.19
7376;BME280;3728;42.266;24.944;2024-02-14T06:06:10;99420.47;;;9.41;89.59
7376;BME280;3728;42.266;24.944;2024-02-14T06:08:38;99429.22;;;9.59;89.37
7376;BME280;3728;42.266;24.944;2024-02-14T06:11:05;99432.28;;;9.39;89.83
7376;BME280;3728;42.266;24.944;2024-02-14T06:13:33;99428.59;;;9.40;88.43
7376;BME280;3728;42.266;24.944;2024-02-14T06:16:00;99436.31;;;9.45;89.82
7376;BME280;3728;42.266;24.944;2024-02-14T06:18:27;99440.88;;;9.53;90.24
7376;BME280;3728;42.266;24.944;2024-02-14T06:20:54;99435.84;;;9.43;89.66
7376;BME280;3728;42.266;24.944;2024-02-14T06:23:21;99447.78;;;9.71;88.65
7376;BME280;3728;42.266;24.944;2024-02-14T06:25:48;99456.81;;;9.65;88.20
7376;BME280;3728;42.266;24.944;2024-02-14T06:28:15;99456.72;;;9.56;88.68
7376;BME280;3728;42.266;24.944;2024-02-14T06:30:42;99451.78;;;9.55;89.20
7376;BME280;3728;42.266;24.944;2024-02-14T06:33:09;99460.91;;;9.57;88.48
7376;BME280;3728;42.266;24.944;2024-02-14T06:35:36;99465.50;;;9.74;88.34
7376;BME280;3728;42.266;24.944;2024-02-14T06:38:03;99469.66;;;9.75;87.27
7376;BME280;3728;42.266;24.944;2024-02-14T06:40:31;99464.47;;;9.61;88.23
7376;BME280;3728;42.266;24.944;2024-02-14T06:42:59;99471.56;;;9.83;86.81
7376;BME280;3728;42.266;24.944;2024-02-14T06:45:29;99470.00;;;9.96;85.47
7376;BME280;3728;42.266;24.944;2024-02-14T06:47:56;99474.66;;;9.85;85.94
7376;BME280;3728;42.266;24.944;2024-02-14T06:50:23;99479.63;;;9.73;86.71
7376;BME280;3728;42.266;24.944;2024-02-14T06:52:54;99486.56;;;9.91;86.26
7376;BME280;3728;42.266;24.944;2024-02-14T06:55:26;99481.72;;;9.85;86.62
7376;BME280;3728;42.266;24.944;2024-02-14T06:57:54;99492.13;;;9.76;86.47
7376;BME280;3728;42.266;24.944;2024-02-14T07:00:21;99494.19;;;10.15;83.44
7376;BME280;3728;42.266;24.944;2024-02-14T07:02:48;99501.72;;;10.16;83.43
7376;BME280;3728;42.266;24.944;2024-02-14T07:05:15;99504.94;;;10.13;83.72
7376;BME280;3728;42.266;24.944;2024-02-14T07:07:42;99508.56;;;10.26;83.30
7376;BME280;3728;42.266;24.944;2024-02-14T07:10:09;99505.41;;;10.15;82.99
7376;BME280;3728;42.266;24.944;2024-02-14T07:12:38;99503.69;;;9.97;84.15
7376;BME280;3728;42.266;24.944;2024-02-14T07:15:05;99514.59;;;10.26;83.45
7376;BME280;3728;42.266;24.944;2024-02-14T07:17:33;99516.41;;;9.90;84.28
7376;BME280;3728;42.266;24.944;2024-02-14T07:20:01;99524.88;;;10.09;83.95
7376;BME280;3728;42.266;24.944;2024-02-14T07:22:28;99526.22;;;10.20;83.34
7376;BME280;3728;42.266;24.944;2024-02-14T07:24:57;99530.41;;;9.72;85.58
7376;BME280;3728;42.266;24.944;2024-02-14T07:27:25;99532.06;;;10.04;84.21
7376;BME280;3728;42.266;24.944;2024-02-14T07:29:52;99535.63;;;10.21;83.09
7376;BME280;3728;42.266;24.944;2024-02-14T07:32:20;99542.88;;;10.24;83.11
7376;BME280;3728;42.266;24.944;2024-02-14T07:34:47;99540.09;;;10.07;84.17
7376;BME280;3728;42.266;24.944;2024-02-14T07:37:14;99538.06;;;10.18;83.80
7376;BME280;3728;42.266;24.944;2024-02-14T07:39:45;99539.34;;;10.43;82.53
7376;BME280;3728;42.266;24.944;2024-02-14T07:42:13;99544.50;;;10.34;83.55
7376;BME280;3728;42.266;24.944;2024-02-14T07:44:40;99547.00;;;10.39;82.90
7376;BME280;3728;42.266;24.944;2024-02-14T07:47:07;99545.69;;;10.50;82.68
7376;BME280;3728;42.266;24.944;2024-02-14T07:49:34;99551.59;;;10.34;82.95
7376;BME280;3728;42.266;24.944;2024-02-14T07:52:01;99545.31;;;10.21;83.74
7376;BME280;3728;42.266;24.944;2024-02-14T07:54:28;99553.06;;;10.48;82.71
7376;BME280;3728;42.266;24.944;2024-02-14T07:56:55;99549.09;;;10.28;83.54
7376;BME280;3728;42.266;24.944;2024-02-14T07:59:22;99550.97;;;10.37;82.56
7376;BME280;3728;42.266;24.944;2024-02-14T08:01:48;99557.72;;;10.51;81.81
7376;BME280;3728;42.266;24.944;2024-02-14T08:04:16;99557.19;;;10.41;82.37
7376;BME280;3728;42.266;24.944;2024-02-14T08:06:45;99559.34;;;10.39;81.88
7376;BME280;3728;42.266;24.944;2024-02-14T08:09:13;99566.69;;;10.37;81.83
7376;BME280;3728;42.266;24.944;2024-02-14T08:11:40;99560.25;;;10.20;82.58
7376;BME280;3728;42.266;24.944;2024-02-14T08:14:07;99567.41;;;10.51;81.80
7376;BME280;3728;42.266;24.944;2024-02-14T08:16:35;99572.88;;;10.63;80.84
7376;BME280;3728;42.266;24.944;2024-02-14T08:19:02;99574.16;;;10.43;80.19
7376;BME280;3728;42.266;24.944;2024-02-14T08:21:30;99576.34;;;10.50;80.31
7376;BME280;3728;42.266;24.944;2024-02-14T08:23:58;99581.09;;;10.70;79.10
7376;BME280;3728;42.266;24.944;2024-02-14T08:26:27;99580.84;;;10.80;78.37
7376;BME280;3728;42.266;24.944;2024-02-14T08:28:55;99586.09;;;10.80;78.02
7376;BME280;3728;42.266;24.944;2024-02-14T08:31:22;99593.25;;;10.66;79.34
7376;BME280;3728;42.266;24.944;2024-02-14T08:33:49;99598.91;;;10.59;79.69
7376;BME280;3728;42.266;24.944;2024-02-14T08:36:17;99600.16;;;10.62;79.17
7376;BME280;3728;42.266;24.944;2024-02-14T08:38:48;99607.16;;;10.75;79.61
7376;BME280;3728;42.266;24.944;2024-02-14T08:41:15;99614.72;;;10.76;79.72
7376;BME280;3728;42.266;24.944;2024-02-14T08:43:42;99613.22;;;10.84;79.42
7376;BME280;3728;42.266;24.944;2024-02-14T08:46:17;99611.69;;;10.83;79.65
7376;BME280;3728;42.266;24.944;2024-02-14T08:48:45;99621.22;;;10.79;80.69
7376;BME280;3728;42.266;24.944;2024-02-14T08:51:16;99622.56;;;10.76;82.55
7376;BME280;3728;42.266;24.944;2024-02-14T08:53:46;99626.59;;;10.74;83.23
7376;BME280;3728;42.266;24.944;2024-02-14T08:56:15;99619.59;;;10.69;84.98
7376;BME280;3728;42.266;24.944;2024-02-14T08:58:43;99617.75;;;10.70;84.09
7376;BME280;3728;42.266;24.944;2024-02-14T09:01:11;99618.13;;;10.55;86.68
7376;BME280;3728;42.266;24.944;2024-02-14T09:03:45;99623.19;;;11.26;81.99
7376;BME280;3728;42.266;24.944;2024-02-14T09:06:17;99622.94;;;11.36;81.13
7376;BME280;3728;42.266;24.944;2024-02-14T09:08:48;99622.16;;;11.05;83.32
7376;BME280;3728;42.266;24.944;2024-02-14T09:11:17;99624.41;;;10.98;82.59
7376;BME280;3728;42.266;24.944;2024-02-14T09:13:45;99628.44;;;10.73;83.61
7376;BME280;3728;42.266;24.944;2024-02-14T09:16:14;99627.13;;;11.37;79.88
7376;BME280;3728;42.266;24.944;2024-02-14T09:18:47;99621.00;;;11.20;79.96
7376;BME280;3728;42.266;24.944;2024-02-14T09:21:14;99631.31;;;11.16;80.69
7376;BME280;3728;42.266;24.944;2024-02-14T09:23:46;99632.63;;;11.05;81.65
7376;BME280;3728;42.266;24.944;2024-02-14T09:26:13;99626.94;;;10.81;83.77
7376;BME280;3728;42.266;24.944;2024-02-14T09:28:43;99631.09;;;10.82;81.58
7376;BME280;3728;42.266;24.944;2024-02-14T09:31:11;99630.34;;;11.12;79.04
7376;BME280;3728;42.266;24.944;2024-02-14T09:33:39;99628.22;;;11.14;78.11
7376;BME280;3728;42.266;24.944;2024-02-14T09:36:07;99631.81;;;11.18;78.89
7376;BME280;3728;42.266;24.944;2024-02-14T09:38:34;99630.00;;;11.05;79.08
7376;BME280;3728;42.266;24.944;2024-02-14T09:41:15;99630.59;;;11.24;77.81
7376;BME280;3728;42.266;24.944;2024-02-14T09:43:45;99624.44;;;11.29;76.66
7376;BME280;3728;42.266;24.944;2024-02-14T09:46:15;99629.00;;;11.45;75.00
7376;BME280;3728;42.266;24.944;2024-02-14T09:48:44;99633.97;;;11.25;76.75
7376;BME280;3728;42.266;24.944;2024-02-14T09:51:12;99638.97;;;11.04;77.98
7376;BME280;3728;42.266;24.944;2024-02-14T09:53:40;99637.81;;;11.19;77.76
7376;BME280;3728;42.266;24.944;2024-02-14T09:56:11;99639.47;;;11.45;76.08
7376;BME280;3728;42.266;24.944;2024-02-14T09:58:40;99641.97;;;11.50;75.95
7376;BME280;3728;42.266;24.944;2024-02-14T10:01:07;99631.06;;;11.26;77.23
7376;BME280;3728;42.266;24.944;2024-02-14T10:03:34;99633.78;;;11.52;75.87
7376;BME280;3728;42.266;24.944;2024-02-14T10:06:03;99635.09;;;11.32;77.50
7376;BME280;3728;42.266;24.944;2024-02-14T10:08:32;99634.69;;;11.47;76.87
7376;BME280;3728;42.266;24.944;2024-02-14T10:10:59;99627.28;;;11.41;77.72
7376;BME280;3728;42.266;24.944;2024-02-14T10:13:27;99634.69;;;11.70;74.94
7376;BME280;3728;42.266;24.944;2024-02-14T10:15:55;99625.97;;;11.60;74.38
7376;BME280;3728;42.266;24.944;2024-02-14T10:18:23;99636.41;;;11.52;74.14
7376;BME280;3728;42.266;24.944;2024-02-14T10:20:55;99623.53;;;11.33;75.23
7376;BME280;3728;42.266;24.944;2024-02-14T10:23:22;99622.72;;;11.24;74.98
7376;BME280;3728;42.266;24.944;2024-02-14T10:25:52;99624.41;;;11.20;76.10
7376;BME280;3728;42.266;24.944;2024-02-14T10:28:20;99619.16;;;11.20;76.71
7376;BME280;3728;42.266;24.944;2024-02-14T10:30:58;99622.13;;;11.27;75.23
7376;BME280;3728;42.266;24.944;2024-02-14T10:33:29;99618.00;;;11.35;74.50
7376;BME280;3728;42.266;24.944;2024-02-14T10:35:57;99611.28;;;11.51;74.14
7376;BME280;3728;42.266;24.944;2024-02-14T10:38:32;99610.16;;;11.43;74.56
7376;BME280;3728;42.266;24.944;2024-02-14T10:41:02;99609.50;;;11.68;73.86
7376;BME280;3728;42.266;24.944;2024-02-14T10:43:33;99611.38;;;11.68;73.75
7376;BME280;3728;42.266;24.944;2024-02-14T10:46:05;99608.44;;;11.78;71.95
7376;BME280;3728;42.266;24.944;2024-02-14T10:48:37;99607.59;;;12.00;70.69
7376;BME280;3728;42.266;24.944;2024-02-14T10:51:08;99610.38;;;12.03;69.01
7376;BME280;3728;42.266;24.944;2024-02-14T10:53:39;99604.81;;;12.05;68.74
7376;BME280;3728;42.266;24.944;2024-02-14T10:56:18;99609.13;;;12.01;68.71
7376;BME280;3728;42.266;24.944;2024-02-14T10:58:48;99603.56;;;12.11;70.54
7376;BME280;3728;42.266;24.944;2024-02-14T11:01:19;99607.47;;;12.22;67.93
7376;BME280;3728;42.266;24.944;2024-02-14T11:03:47;99614.56;;;12.21;66.59
7376;BME280;3728;42.266;24.944;2024-02-14T11:06:17;99610.22;;;12.25;66.80
7376;BME280;3728;42.266;24.944;2024-02-14T11:09:01;99615.81;;;12.32;66.53
7376;BME280;3728;42.266;24.944;2024-02-14T11:11:29;99607.31;;;12.27;67.27
7376;BME280;3728;42.266;24.944;2024-02-14T11:13:58;99604.38;;;12.37;65.01
7376;BME280;3728;42.266;24.944;2024-02-14T11:16:25;99613.81;;;12.38;65.32
7376;BME280;3728;42.266;24.944;2024-02-14T11:19:11;99605.91;;;12.29;67.11
7376;BME280;3728;42.266;24.944;2024-02-14T11:21:43;99603.31;;;12.38;66.53
7376;BME280;3728;42.266;24.944;2024-02-14T11:24:14;99599.56;;;12.73;63.27
7376;BME280;3728;42.266;24.944;2024-02-14T11:26:50;99600.69;;;12.55;63.94
7376;BME280;3728;42.266;24.944;2024-02-14T11:29:21;99601.44;;;12.56;61.25
7376;BME280;3728;42.266;24.944;2024-02-14T11:31:59;99607.63;;;12.68;61.34
7376;BME280;3728;42.266;24.944;2024-02-14T11:34:29;99600.25;;;13.17;56.58
7376;BME280;3728;42.266;24.944;2024-02-14T11:37:04;99599.94;;;13.27;57.09
7376;BME280;3728;42.266;24.944;2024-02-14T11:39:33;99596.06;;;13.62;56.04
7376;BME280;3728;42.266;24.944;2024-02-14T11:42:00;99602.94;;;13.46;56.38
7376;BME280;3728;42.266;24.944;2024-02-14T11:44:27;99603.94;;;13.70;57.49
7376;BME280;3728;42.266;24.944;2024-02-14T11:46:55;99600.38;;;13.96;56.47
7376;BME280;3728;42.266;24.944;2024-02-14T11:49:22;99601.41;;;14.03;54.20
7376;BME280;3728;42.266;24.944;2024-02-14T11:51:49;99595.97;;;14.08;53.74
7376;BME280;3728;42.266;24.944;2024-02-14T11:54:16;99599.50;;;14.12;51.87
7376;BME280;3728;42.266;24.944;2024-02-14T11:56:46;99594.78;;;13.97;52.75
7376;BME280;3728;42.266;24.944;2024-02-14T11:59:13;99607.03;;;13.93;53.87
7376;BME280;3728;42.266;24.944;2024-02-14T12:01:42;99601.72;;;14.02;53.47
7376;BME280;3728;42.266;24.944;2024-02-14T12:04:10;99602.94;;;14.04;52.34
7376;BME280;3728;42.266;24.944;2024-02-14T12:06:39;99604.25;;;13.90;51.85
7376;BME280;3728;42.266;24.944;2024-02-14T12:09:09;99603.69;;;13.84;52.19
7376;BME280;3728;42.266;24.944;2024-02-14T12:11:37;99602.75;;;13.89;52.85
7376;BME280;3728;42.266;24.944;2024-02-14T12:14:06;99603.78;;;13.96;52.41
7376;BME280;3728;42.266;24.944;2024-02-14T12:16:37;99590.81;;;13.91;51.34
7376;BME280;3728;42.266;24.944;2024-02-14T12:19:14;99598.44;;;13.84;51.54
7376;BME280;3728;42.266;24.944;2024-02-14T12:21:43;99607.31;;;14.00;50.66
7376;BME280;3728;42.266;24.944;2024-02-14T12:24:12;99603.09;;;14.08;49.74
7376;BME280;3728;42.266;24.944;2024-02-14T12:26:42;99607.13;;;14.05;50.29
7376;BME280;3728;42.266;24.944;2024-02-14T12:29:12;99596.44;;;14.02;51.11
7376;BME280;3728;42.266;24.944;2024-02-14T12:31:40;99595.16;;;13.87;51.84
7376;BME280;3728;42.266;24.944;2024-02-14T12:34:10;99604.38;;;13.73;52.42
7376;BME280;3728;42.266;24.944;2024-02-14T12:36:38;99594.44;;;13.49;51.85
7376;BME280;3728;42.266;24.944;2024-02-14T12:39:05;99589.81;;;13.75;53.39
7376;BME280;3728;42.266;24.944;2024-02-14T12:41:33;99593.94;;;13.85;52.80
7376;BME280;3728;42.266;24.944;2024-02-14T12:44:02;99593.53;;;13.74;53.65
7376;BME280;3728;42.266;24.944;2024-02-14T12:46:30;99581.91;;;13.75;52.81
7376;BME280;3728;42.266;24.944;2024-02-14T12:48:57;99586.84;;;13.77;52.66
7376;BME280;3728;42.266;24.944;2024-02-14T12:51:24;99586.25;;;13.71;52.53
7376;BME280;3728;42.266;24.944;2024-02-14T12:53:56;99590.78;;;13.70;52.53
7376;BME280;3728;42.266;24.944;2024-02-14T12:56:23;99595.09;;;13.75;52.98
7376;BME280;3728;42.266;24.944;2024-02-14T12:58:50;99596.69;;;13.88;52.13
7376;BME280;3728;42.266;24.944;2024-02-14T13:01:17;99580.25;;;13.70;53.13
7376;BME280;3728;42.266;24.944;2024-02-14T13:03:45;99589.13;;;13.87;53.37
7376;BME280;3728;42.266;24.944;2024-02-14T13:06:12;99581.53;;;13.85;54.41
7376;BME280;3728;42.266;24.944;2024-02-14T13:08:41;99597.63;;;13.63;53.99
7376;BME280;3728;42.266;24.944;2024-02-14T13:11:09;99596.97;;;13.66;54.92
7376;BME280;3728;42.266;24.944;2024-02-14T13:13:36;99595.97;;;13.50;53.96
7376;BME280;3728;42.266;24.944;2024-02-14T13:16:04;99586.16;;;13.30;55.29
7376;BME280;3728;42.266;24.944;2024-02-14T13:18:33;99594.94;;;13.34;56.05
7376;BME280;3728;42.266;24.944;2024-02-14T13:21:02;99594.38;;;13.20;56.46
7376;BME280;3728;42.266;24.944;2024-02-14T13:23:30;99596.31;;;12.85;56.79